createdAt,value
2019-04-22T00:02:29.922Z,68.47
2019-04-22T00:05:11.592Z,65.73
2019-04-22T00:07:56.886Z,58.93
2019-04-22T00:10:32.259Z,62.20
2019-04-22T00:13:02.800Z,65.23
2019-04-22T00:15:27.926Z,66.47
2019-04-22T00:18:07.856Z,67.13
2019-04-22T00:20:35.505Z,64.20
2019-04-22T00:23:10.095Z,66.77
2019-04-22T00:25:44.106Z,62.80
2019-04-22T00:28:08.711Z,68.93
2019-04-22T00:30:43.437Z,64.10
2019-04-22T00:33:19.133Z,64.93
2019-04-22T00:35:53.160Z,61.23
2019-04-22T00:41:05.782Z,68.97
2019-04-22T00:43:22.171Z,63.70
2019-04-22T00:45:47.914Z,61.57
2019-04-22T00:48:27.863Z,65.23
2019-04-22T00:51:01.647Z,60.63
2019-04-22T00:53:30.088Z,63.10
2019-04-22T00:56:20.201Z,64.10
2019-04-22T01:03:50.189Z,57.53
2019-04-22T01:08:53.021Z,59.33
2019-04-22T01:11:24.534Z,73.20
2019-04-22T01:13:53.338Z,62.77
2019-04-22T01:16:23.973Z,72.77
2019-04-22T01:18:54.876Z,61.53
2019-04-22T01:21:29.016Z,60.17
2019-04-22T01:23:52.261Z,57.77
2019-04-22T01:26:24.235Z,62.07
2019-04-22T01:28:53.513Z,59.27
2019-04-22T01:31:19.610Z,58.23
2019-04-22T01:33:58.615Z,60.40
2019-04-22T01:36:38.456Z,61.53
2019-04-22T01:39:10.784Z,55.90
2019-04-22T01:41:48.997Z,66.50
2019-04-22T01:44:21.605Z,56.93
2019-04-22T01:49:21.383Z,58.67
2019-04-22T01:54:29.793Z,63.90
2019-04-22T01:56:54.056Z,71.83
2019-04-22T01:59:16.456Z,52.10
2019-04-22T02:01:55.127Z,64.43
2019-04-22T02:04:35.090Z,58.80
2019-04-22T02:07:01.828Z,59.07
2019-04-22T02:14:34.368Z,58.57
2019-04-22T02:19:35.707Z,64.40
2019-04-22T02:22:15.032Z,60.53
2019-04-22T02:24:47.702Z,54.43
2019-04-22T02:27:17.690Z,54.27
2019-04-22T02:29:43.443Z,62.77
2019-04-22T02:32:28.194Z,56.60
2019-04-22T02:37:18.586Z,56.50
2019-04-22T02:39:58.010Z,59.30
2019-04-22T02:42:16.526Z,51.67
2019-04-22T02:47:33.578Z,53.37
2019-04-22T02:50:02.122Z,55.17
2019-04-22T02:55:02.117Z,59.57
2019-04-22T03:00:12.319Z,54.20
2019-04-22T03:03:06.265Z,48.17
2019-04-22T03:05:27.704Z,59.00
2019-04-22T03:07:41.005Z,58.17
2019-04-22T03:10:16.074Z,51.00
2019-04-22T03:12:37.014Z,47.80
2019-04-22T03:15:09.679Z,55.83
2019-04-22T03:20:11.046Z,47.17
2019-04-22T03:22:47.618Z,49.57
2019-04-22T03:30:48.248Z,48.33
2019-04-22T03:45:28.122Z,46.97
2019-04-22T03:55:33.131Z,45.07
2019-04-22T04:00:47.649Z,43.83
2019-04-22T04:05:54.118Z,50.43
2019-04-22T04:08:16.377Z,49.30
2019-04-22T04:13:16.831Z,47.53
2019-04-22T04:15:36.430Z,49.40
2019-04-22T04:18:15.042Z,40.20
2019-04-22T04:21:09.716Z,51.47
2019-04-22T04:23:30.899Z,45.10
2019-04-22T04:26:05.075Z,44.37
2019-04-22T04:30:48.592Z,43.37
2019-04-22T04:33:24.978Z,46.83
2019-04-22T04:38:21.750Z,47.13
2019-04-22T04:40:57.366Z,49.43
2019-04-22T04:43:33.358Z,49.13
2019-04-22T04:48:42.831Z,46.93
2019-04-22T04:53:24.505Z,45.23
2019-04-22T04:56:10.927Z,44.43
2019-04-22T04:58:47.756Z,41.97
2019-04-22T05:01:14.845Z,49.07
2019-04-22T05:03:58.080Z,45.23
2019-04-22T05:06:13.132Z,43.40
2019-04-22T05:11:32.219Z,47.93
2019-04-22T05:13:49.704Z,44.27
2019-04-22T05:16:25.388Z,45.93
2019-04-22T05:18:44.819Z,45.37
2019-04-22T05:21:19.330Z,48.73
2019-04-22T05:23:47.713Z,42.40
2019-04-22T05:26:22.370Z,41.13
2019-04-22T05:28:47.136Z,43.57
2019-04-22T05:31:16.318Z,40.80
2019-04-22T05:33:51.042Z,41.03
2019-04-22T05:36:20.339Z,43.53
2019-04-22T05:41:17.743Z,44.60
2019-04-22T05:43:49.829Z,37.97
2019-04-22T05:46:20.754Z,35.97
2019-04-22T05:48:53.537Z,44.50
2019-04-22T05:51:28.075Z,37.47
2019-04-22T05:53:57.112Z,36.37
2019-04-22T05:56:37.510Z,33.03
2019-04-22T05:59:02.511Z,45.60
2019-04-22T06:03:58.784Z,30.47
2019-04-22T06:06:32.195Z,31.90
2019-04-22T06:11:29.833Z,34.10
2019-04-22T06:14:04.457Z,30.73
2019-04-22T06:16:38.438Z,27.63
2019-04-22T06:19:07.399Z,42.10
2019-04-22T06:21:38.524Z,35.27
2019-04-22T06:24:10.943Z,40.03
2019-04-22T06:29:13.633Z,27.00
2019-04-22T06:31:55.964Z,30.87
2019-04-22T06:36:45.207Z,26.93
2019-04-22T06:39:17.338Z,26.60
2019-04-22T06:46:49.209Z,27.93
2019-04-22T06:49:18.830Z,35.20
2019-04-22T06:51:46.813Z,23.57
2019-04-22T06:54:14.097Z,29.93
2019-04-22T06:56:48.531Z,25.43
2019-04-22T06:59:25.153Z,32.67
2019-04-22T07:01:55.027Z,31.13
2019-04-22T07:04:25.587Z,25.73
2019-04-22T07:11:57.594Z,27.83
2019-04-22T07:14:22.485Z,25.80
2019-04-22T07:16:56.179Z,24.33
2019-04-22T07:19:33.748Z,20.30
2019-04-22T07:22:03.268Z,21.40
2019-04-22T07:24:43.834Z,25.90
2019-04-22T07:27:10.593Z,17.40
2019-04-22T07:29:44.646Z,20.20
2019-04-22T07:32:39.729Z,25.03
2019-04-22T07:34:47.396Z,16.90
2019-04-22T07:37:29.702Z,22.17
2019-04-22T07:42:19.006Z,17.90
2019-04-22T07:47:18.925Z,17.17
2019-04-22T07:52:24.655Z,17.70
2019-04-22T07:54:53.089Z,21.33
2019-04-22T07:59:57.194Z,17.13
2019-04-22T08:02:26.652Z,17.60
2019-04-22T08:05:07.422Z,29.00
2019-04-22T08:07:24.415Z,17.67
2019-04-22T08:10:00.358Z,18.43
2019-04-22T08:12:36.557Z,17.13
2019-04-22T08:15:03.081Z,20.20
2019-04-22T08:20:05.541Z,15.53
2019-04-22T08:22:26.105Z,18.73
2019-04-22T08:25:01.359Z,15.17
2019-04-22T08:27:31.869Z,17.10
2019-04-22T08:30:06.555Z,17.97
2019-04-22T08:32:37.577Z,16.93
2019-04-22T08:35:04.912Z,14.23
2019-04-22T08:40:12.487Z,16.73
2019-04-22T08:43:36.369Z,15.47
2019-04-22T08:45:28.531Z,13.37
2019-04-22T08:52:42.156Z,16.33
2019-04-22T08:55:20.761Z,13.50
2019-04-22T08:58:06.764Z,15.47
2019-04-22T09:00:15.458Z,15.17
2019-04-22T09:02:48.197Z,10.47
2019-04-22T09:05:35.909Z,11.73
2019-04-22T09:08:09.350Z,12.40
2019-04-22T09:10:17.174Z,13.17
2019-04-22T09:15:26.342Z,10.53
2019-04-22T09:17:55.981Z,16.97
2019-04-22T09:20:28.651Z,16.00
2019-04-22T09:23:05.531Z,13.63
2019-04-22T09:25:29.455Z,24.37
2019-04-22T09:27:58.796Z,10.50
2019-04-22T09:30:37.156Z,22.83
2019-04-22T09:33:08.195Z,14.40
2019-04-22T09:35:37.613Z,8.60
2019-04-22T09:40:43.129Z,17.40
2019-04-22T09:43:13.348Z,12.60
2019-04-22T09:45:43.386Z,11.30
2019-04-22T09:48:16.634Z,11.20
2019-04-22T09:53:14.840Z,9.33
2019-04-22T09:55:50.028Z,14.50
2019-04-22T09:58:20.762Z,11.97
2019-04-22T10:01:20.290Z,9.40
2019-04-22T10:03:45.269Z,11.40
2019-04-22T10:06:22.751Z,7.40
2019-04-22T10:08:52.922Z,11.43
2019-04-22T10:11:23.924Z,10.90
2019-04-22T10:13:47.578Z,9.43
2019-04-22T10:16:20.289Z,10.13
2019-04-22T10:21:26.822Z,14.27
2019-04-22T10:23:54.815Z,11.13
2019-04-22T10:26:33.467Z,7.43
2019-04-22T10:29:08.574Z,14.67
2019-04-22T10:33:53.218Z,9.93
2019-04-22T10:36:09.799Z,8.67
2019-04-22T10:38:40.231Z,16.50
2019-04-22T10:41:10.438Z,15.80
2019-04-22T10:43:41.100Z,10.07
2019-04-22T10:46:10.599Z,11.40
2019-04-22T10:48:40.158Z,10.37
2019-04-22T10:51:10.662Z,13.60
2019-04-22T10:53:39.925Z,10.83
2019-04-22T10:56:09.387Z,8.77
2019-04-22T10:58:38.572Z,12.33
2019-04-22T11:01:07.796Z,17.47
2019-04-22T11:03:37.337Z,15.43
2019-04-22T11:06:07.448Z,14.13
2019-04-22T11:08:44.535Z,11.73
2019-04-22T11:11:21.423Z,12.90
2019-04-22T11:13:39.906Z,9.37
2019-04-22T11:16:09.731Z,8.10
2019-04-22T11:18:39.446Z,13.90
2019-04-22T11:21:09.653Z,11.03
2019-04-22T11:23:38.942Z,20.43
2019-04-22T11:26:08.232Z,20.53
2019-04-22T11:28:38.090Z,10.37
2019-04-22T11:31:08.218Z,12.20
2019-04-22T11:33:38.576Z,14.20
2019-04-22T11:36:10.799Z,19.20
2019-04-22T11:38:45.857Z,17.93
2019-04-22T11:41:12.507Z,7.93
2019-04-22T11:43:42.984Z,6.90
2019-04-22T11:46:13.438Z,9.43
2019-04-22T11:48:42.644Z,15.03
2019-04-22T11:51:11.741Z,10.10
2019-04-22T11:53:41.006Z,13.87
2019-04-22T11:56:11.153Z,9.30
2019-04-22T11:58:40.361Z,8.90
2019-04-22T12:01:10.771Z,10.97
2019-04-22T12:03:41.876Z,14.83
2019-04-22T12:09:41.689Z,16.10
2019-04-22T12:12:11.916Z,13.83
2019-04-22T12:14:42.423Z,18.37
2019-04-22T12:17:11.702Z,15.20
2019-04-22T12:19:42.061Z,20.23
2019-04-22T12:22:11.258Z,14.10
2019-04-22T12:24:40.607Z,13.83
2019-04-22T12:27:10.600Z,14.33
2019-04-22T12:29:40.731Z,16.27
2019-04-22T12:32:11.535Z,19.60
2019-04-22T12:34:41.694Z,23.30
2019-04-22T12:37:14.848Z,12.13
2019-04-22T12:39:43.315Z,14.63
2019-04-22T12:42:13.166Z,19.47
2019-04-22T12:44:44.098Z,16.27
2019-04-22T12:47:14.945Z,11.70
2019-04-22T12:49:49.308Z,15.27
2019-04-22T12:52:24.531Z,12.30
2019-04-22T12:54:46.971Z,18.53
2019-04-22T12:57:16.818Z,16.30
2019-04-22T12:59:47.778Z,15.00
2019-04-22T13:02:18.688Z,19.57
2019-04-22T13:04:47.948Z,15.07
2019-04-22T13:07:17.680Z,16.40
2019-04-22T13:09:47.375Z,14.33
2019-04-22T13:12:17.141Z,20.43
2019-04-22T13:14:46.397Z,12.50
2019-04-22T13:17:17.029Z,15.27
2019-04-22T13:19:47.777Z,19.93
2019-04-22T13:22:18.759Z,9.73
2019-04-22T13:24:48.189Z,13.83
2019-04-22T13:27:17.432Z,10.80
2019-04-22T13:29:46.835Z,14.60
2019-04-22T13:32:16.542Z,8.50
2019-04-22T13:34:51.524Z,8.20
2019-04-22T13:37:17.013Z,6.30
2019-04-22T13:39:46.957Z,10.20
2019-04-22T13:42:20.381Z,8.13
2019-04-22T13:44:47.430Z,18.67
2019-04-22T13:47:35.063Z,22.63
2019-04-22T13:50:23.820Z,11.63
2019-04-22T13:56:25.181Z,12.33
2019-04-22T13:58:48.407Z,15.57
2019-04-22T14:01:12.722Z,7.50
2019-04-22T14:04:07.148Z,10.13
2019-04-22T14:06:36.817Z,10.13
2019-04-22T14:09:09.532Z,14.47
2019-04-22T14:11:46.194Z,7.40
2019-04-22T14:14:10.970Z,7.07
2019-04-22T14:16:40.912Z,10.70
2019-04-22T14:19:10.198Z,9.30
2019-04-22T14:21:41.086Z,7.07
2019-04-22T14:24:13.786Z,7.10
2019-04-22T14:26:54.947Z,8.00
2019-04-22T14:29:13.601Z,19.33
2019-04-22T14:31:42.819Z,13.50
2019-04-22T14:34:13.791Z,7.70
2019-04-22T14:36:43.570Z,6.90
2019-04-22T14:39:12.712Z,8.27
2019-04-22T14:44:27.815Z,9.53
2019-04-22T14:47:15.805Z,8.23
2019-04-22T14:49:38.611Z,7.47
2019-04-22T14:52:12.985Z,11.70
2019-04-22T14:54:31.298Z,19.23
2019-04-22T14:56:48.507Z,20.90
2019-04-22T14:59:18.839Z,7.23
2019-04-22T15:01:48.081Z,6.23
2019-04-22T15:04:17.290Z,13.23
2019-04-22T15:06:48.897Z,8.87
2019-04-22T15:09:17.608Z,3.73
2019-04-22T15:11:58.215Z,11.90
2019-04-22T15:14:17.491Z,12.70
2019-04-22T15:17:06.893Z,6.77
2019-04-22T15:19:56.200Z,6.23
2019-04-22T15:22:26.405Z,5.40
2019-04-22T15:24:56.662Z,6.47
2019-04-22T15:27:28.926Z,5.73
2019-04-22T15:29:57.049Z,5.53
2019-04-22T15:32:27.373Z,7.23
2019-04-22T15:34:57.324Z,14.53
2019-04-22T15:37:28.074Z,4.70
2019-04-22T15:39:58.589Z,7.00
2019-04-22T15:42:30.757Z,4.87
2019-04-22T15:44:59.852Z,3.57
2019-04-22T15:47:29.294Z,3.90
2019-04-22T15:49:58.460Z,3.87
2019-04-22T15:52:33.778Z,5.53
2019-04-22T15:54:58.448Z,6.13
2019-04-22T15:57:28.695Z,4.43
2019-04-22T16:00:14.701Z,8.63
2019-04-22T16:02:29.807Z,4.50
2019-04-22T16:04:59.013Z,6.93
2019-04-22T16:07:29.609Z,9.57
2019-04-22T16:09:59.624Z,8.07
2019-04-22T16:12:37.718Z,7.53
2019-04-22T16:15:01.539Z,9.50
2019-04-22T16:17:30.613Z,5.20
2019-04-22T16:20:01.420Z,11.80
2019-04-22T16:22:34.220Z,2.80
2019-04-22T16:25:11.354Z,2.43
2019-04-22T16:27:42.605Z,8.33
2019-04-22T16:30:13.221Z,6.17
2019-04-22T16:32:43.454Z,5.60
2019-04-22T16:35:14.582Z,4.60
2019-04-22T16:37:43.716Z,9.13
2019-04-22T16:40:12.706Z,8.13
2019-04-22T16:42:49.107Z,4.60
2019-04-22T16:45:13.603Z,5.50
2019-04-22T16:47:43.817Z,8.67
2019-04-22T16:50:14.039Z,8.73
2019-04-22T16:52:43.961Z,7.57
2019-04-22T16:55:14.714Z,8.57
2019-04-22T16:57:44.163Z,10.10
2019-04-22T17:00:14.489Z,7.67
2019-04-22T17:03:13.546Z,6.90
2019-04-22T17:06:11.847Z,5.23
2019-04-22T17:08:42.418Z,7.83
2019-04-22T17:11:12.015Z,10.00
2019-04-22T17:13:42.398Z,4.63
2019-04-22T17:16:12.047Z,8.07
2019-04-22T17:18:41.342Z,3.30
2019-04-22T17:21:11.072Z,7.70
2019-04-22T17:23:47.629Z,7.20
2019-04-22T17:26:18.504Z,4.67
2019-04-22T17:28:49.227Z,10.43
2019-04-22T17:31:18.643Z,11.97
2019-04-22T17:33:48.831Z,10.37
2019-04-22T17:36:18.362Z,4.40
2019-04-22T17:38:55.017Z,5.23
2019-04-22T17:41:30.194Z,5.50
2019-04-22T17:44:14.955Z,4.37
2019-04-22T17:46:41.733Z,7.73
2019-04-22T17:49:21.906Z,7.33
2019-04-22T17:52:10.761Z,4.90
2019-04-22T17:54:44.770Z,4.47
2019-04-22T17:57:09.899Z,6.70
2019-04-22T17:59:45.210Z,16.17
2019-04-22T18:02:13.361Z,8.60
2019-04-22T18:04:35.278Z,7.17
2019-04-22T18:07:23.432Z,5.40
2019-04-22T18:12:27.663Z,7.73
2019-04-22T18:14:59.342Z,4.80
2019-04-22T18:17:25.696Z,4.30
2019-04-22T18:19:51.890Z,6.63
2019-04-22T18:22:19.775Z,6.30
2019-04-22T18:24:53.112Z,6.67
2019-04-22T18:27:40.151Z,13.03
2019-04-22T18:29:58.992Z,3.73
2019-04-22T18:32:20.371Z,4.83
2019-04-22T18:34:50.378Z,6.60
2019-04-22T18:37:26.828Z,3.20
2019-04-22T18:40:03.293Z,11.40
2019-04-22T18:42:27.008Z,14.03
2019-04-22T18:45:20.121Z,12.37
2019-04-22T18:47:32.308Z,7.50
2019-04-22T18:49:59.641Z,3.97
2019-04-22T18:52:54.407Z,8.03
2019-04-22T18:55:28.405Z,5.40
2019-04-22T18:58:02.984Z,6.13
2019-04-22T19:00:23.484Z,5.43
2019-04-22T19:02:59.361Z,8.40
2019-04-22T19:05:40.061Z,5.67
2019-04-22T19:08:23.072Z,6.63
2019-04-22T19:10:58.977Z,4.70
2019-04-22T19:13:51.283Z,3.60
2019-04-22T19:16:10.007Z,2.43
2019-04-22T19:18:31.885Z,9.63
2019-04-22T19:20:59.545Z,5.33
2019-04-22T19:23:28.437Z,8.53
2019-04-22T19:25:52.284Z,7.50
2019-04-22T19:31:06.226Z,4.63
2019-04-22T19:33:34.846Z,5.13
2019-04-22T19:36:08.518Z,4.07
2019-04-22T19:38:21.933Z,4.20
2019-04-22T19:41:13.516Z,6.40
2019-04-22T19:43:33.184Z,9.03
2019-04-22T19:46:01.981Z,7.50
2019-04-22T19:48:44.986Z,7.20
2019-04-22T19:51:18.676Z,5.63
2019-04-22T19:53:42.223Z,3.80
2019-04-22T19:56:06.119Z,4.50
2019-04-22T19:58:42.713Z,15.43
2019-04-22T20:01:39.329Z,2.33
2019-04-22T20:04:31.442Z,6.70
2019-04-22T20:07:06.710Z,7.17
2019-04-22T20:09:39.825Z,4.90
2019-04-22T20:12:04.488Z,13.50
2019-04-22T20:14:35.911Z,3.90
2019-04-22T20:17:02.205Z,5.57
2019-04-22T20:19:45.460Z,4.87
2019-04-22T20:22:09.773Z,2.47
2019-04-22T20:24:27.719Z,5.60
2019-04-22T20:27:14.927Z,6.77
2019-04-22T20:29:41.729Z,5.23
2019-04-22T20:32:20.195Z,16.73
2019-04-22T20:34:51.116Z,11.63
2019-04-22T20:37:25.289Z,5.00
2019-04-22T20:39:48.265Z,13.97
2019-04-22T20:42:29.737Z,11.53
2019-04-22T20:44:51.735Z,5.10
2019-04-22T20:47:19.174Z,2.70
2019-04-22T20:49:54.770Z,12.23
2019-04-22T20:54:49.058Z,9.17
2019-04-22T20:57:23.977Z,12.57
2019-04-22T20:59:51.176Z,6.30
2019-04-22T21:02:18.296Z,7.27
2019-04-22T21:04:46.257Z,4.73
2019-04-22T21:07:23.752Z,7.43
2019-04-22T21:09:59.513Z,5.00
2019-04-22T21:12:20.938Z,10.07
2019-04-22T21:15:06.845Z,5.60
2019-04-22T21:17:30.878Z,11.30
2019-04-22T21:20:10.477Z,31.27
2019-04-22T21:22:33.541Z,10.73
2019-04-22T21:25:04.951Z,10.03
2019-04-22T21:27:42.441Z,10.23
2019-04-22T21:29:58.207Z,19.50
2019-04-22T21:32:38.622Z,5.43
2019-04-22T21:35:18.542Z,5.00
2019-04-22T21:37:43.177Z,2.90
2019-04-22T21:40:11.860Z,8.20
2019-04-22T21:42:48.865Z,6.70
2019-04-22T21:45:14.663Z,7.50
2019-04-22T21:47:57.738Z,5.80
2019-04-22T21:50:37.594Z,10.70
2019-04-22T21:52:59.480Z,6.10
2019-04-22T21:55:25.220Z,11.53
2019-04-22T21:58:09.420Z,12.13
2019-04-22T22:00:43.476Z,6.00
2019-04-22T22:03:12.806Z,5.50
2019-04-22T22:05:30.162Z,6.73
2019-04-22T22:08:04.044Z,5.63
2019-04-22T22:10:42.129Z,5.63
2019-04-22T22:13:11.098Z,5.33
2019-04-22T22:15:42.221Z,6.23
2019-04-22T22:18:10.131Z,14.20
2019-04-22T22:21:02.244Z,34.70
2019-04-22T22:23:25.239Z,3.67
2019-04-22T22:25:45.245Z,5.23
2019-04-22T22:28:37.213Z,9.50
2019-04-22T22:31:09.327Z,7.77
2019-04-22T22:33:18.354Z,5.50
2019-04-22T22:35:51.678Z,3.40
2019-04-22T22:38:26.286Z,9.97
2019-04-22T22:40:36.247Z,7.83
2019-04-22T22:43:15.928Z,1.93
2019-04-22T22:45:44.359Z,11.07
2019-04-22T22:48:38.410Z,4.00
2019-04-22T22:50:58.518Z,7.00
2019-04-22T22:53:41.618Z,11.97
2019-04-22T22:56:05.089Z,10.23
2019-04-22T22:58:34.752Z,4.13
2019-04-22T23:00:57.900Z,2.27
2019-04-22T23:06:15.722Z,4.50
2019-04-22T23:08:38.526Z,12.20
2019-04-22T23:11:11.810Z,8.83
2019-04-22T23:13:37.144Z,4.03
2019-04-22T23:16:00.840Z,2.93
2019-04-22T23:18:19.835Z,7.67
2019-04-22T23:20:51.836Z,3.23
2019-04-22T23:23:39.547Z,9.83
2019-04-22T23:26:14.043Z,12.77
2019-04-22T23:28:57.774Z,7.30
2019-04-22T23:31:23.703Z,7.63
2019-04-22T23:34:21.928Z,7.27
2019-04-22T23:37:25.210Z,7.40
2019-04-22T23:40:14.055Z,6.57
2019-04-22T23:42:32.728Z,16.50
2019-04-22T23:45:12.312Z,10.17
2019-04-22T23:47:30.976Z,5.50
2019-04-22T23:50:11.220Z,7.00
2019-04-22T23:52:48.031Z,3.87
2019-04-22T23:55:17.757Z,7.00
